Rockwall's Hourly Summary for Monday, May 14, 2018
Hour Temp
(f)
RH
(%)
Solar Rad.
(MJ/m2)
Rainfall
(in)
Wind
(mph)
5/14/2018 12:00 AM 76 69 0 0 2.45
5/14/2018 1:00 AM 76 71 0 0 3.44
5/14/2018 2:00 AM 75 73 0 0 3.93
5/14/2018 3:00 AM 75 75 0 0 4.19
5/14/2018 4:00 AM 74 78 0 0 3.43
5/14/2018 5:00 AM 73 81 0 0 3.79
5/14/2018 6:00 AM 72 85 0 0 3.18
5/14/2018 7:00 AM 71 89 0.02 0 4.26
5/14/2018 8:00 AM 72 88 0.43 0 5.13
5/14/2018 9:00 AM 74 77 1.08 0 6.29
5/14/2018 10:00 AM 76 75 1.07 0 4.93
5/14/2018 11:00 AM 78 70 1.23 0 5.14
5/14/2018 12:00 PM 80 65 1.86 0 4.54
5/14/2018 1:00 PM 83 57 3.13 0 5.96
5/14/2018 2:00 PM 85 56 2.81 0 5.63
5/14/2018 3:00 PM 86 53 2.28 0 5.12
5/14/2018 4:00 PM 86 51 2.32 0 6.54
5/14/2018 5:00 PM 86 50 1.76 0 6.19
5/14/2018 6:00 PM 86 50 1.3 0 6.11
5/14/2018 7:00 PM 85 52 0.53 0 6.43
5/14/2018 8:00 PM 82 59 0.07 0 5.79
5/14/2018 9:00 PM 80 63 0 0 3.9
5/14/2018 10:00 PM 79 67 0 0 4.24
5/14/2018 11:00 PM 78 69 0 0 4.3
Data Summary 78 67 19.89 0.00 4.79